createdAt,value
2019-05-21T00:01:47.498Z,99.90
2019-05-21T00:04:27.917Z,99.90
2019-05-21T00:06:46.225Z,99.90
2019-05-21T00:09:14.637Z,99.90
2019-05-21T00:11:43.124Z,99.90
2019-05-21T00:14:11.631Z,99.90
2019-05-21T00:16:40.118Z,99.90
2019-05-21T00:19:08.557Z,99.90
2019-05-21T00:21:37.055Z,99.90
2019-05-21T00:24:05.481Z,99.90
2019-05-21T00:26:33.984Z,99.90
2019-05-21T00:29:38.120Z,99.90
2019-05-21T00:32:42.052Z,99.90
2019-05-21T00:35:49.551Z,99.90
2019-05-21T00:38:54.468Z,99.90
2019-05-21T00:41:59.283Z,99.90
2019-05-21T00:44:27.805Z,99.90
2019-05-21T00:46:56.241Z,99.90
2019-05-21T00:49:25.121Z,99.90
2019-05-21T00:52:06.501Z,99.90
2019-05-21T00:54:24.645Z,99.90
2019-05-21T00:56:53.069Z,99.90
2019-05-21T00:59:21.571Z,99.90
2019-05-21T01:01:50.085Z,99.90
2019-05-21T01:04:18.576Z,99.90
2019-05-21T01:06:46.901Z,99.90
2019-05-21T01:09:15.494Z,99.90
2019-05-21T01:11:43.929Z,99.90
2019-05-21T01:14:12.418Z,99.90
2019-05-21T01:16:40.881Z,99.90
2019-05-21T01:19:09.393Z,99.90
2019-05-21T01:21:37.834Z,99.90
2019-05-21T01:24:06.329Z,99.90
2019-05-21T01:26:34.874Z,99.90
2019-05-21T01:29:03.409Z,99.90
2019-05-21T01:31:31.813Z,99.90
2019-05-21T01:34:00.212Z,99.90
2019-05-21T01:36:28.757Z,99.90
2019-05-21T01:38:57.675Z,99.90
2019-05-21T01:41:26.122Z,99.90
2019-05-21T01:43:54.585Z,99.90
2019-05-21T01:46:23.046Z,99.90
2019-05-21T01:48:51.553Z,99.90
2019-05-21T01:51:19.989Z,99.90
2019-05-21T01:53:48.737Z,99.90
2019-05-21T01:56:17.688Z,99.90
2019-05-21T01:58:46.118Z,99.90
2019-05-21T02:01:15.001Z,99.90
2019-05-21T02:03:43.433Z,99.90
2019-05-21T02:06:11.929Z,99.90
2019-05-21T02:08:40.424Z,99.90
2019-05-21T02:11:08.901Z,99.90
2019-05-21T02:13:37.331Z,99.90
2019-05-21T02:16:06.632Z,99.90
2019-05-21T02:18:35.060Z,99.90
2019-05-21T02:21:03.660Z,99.90
2019-05-21T02:23:32.132Z,99.90
2019-05-21T02:26:00.734Z,99.90
2019-05-21T02:28:29.198Z,99.90
2019-05-21T02:30:58.370Z,99.90
2019-05-21T02:33:26.708Z,99.90
2019-05-21T02:35:55.316Z,99.90
2019-05-21T02:38:24.335Z,99.90
2019-05-21T02:40:52.808Z,99.90
2019-05-21T02:43:21.232Z,99.90
2019-05-21T02:45:49.719Z,99.90
2019-05-21T02:48:18.148Z,99.90
2019-05-21T02:57:50.208Z,99.90
2019-05-21T03:00:39.200Z,99.90
2019-05-21T03:03:08.899Z,99.90
2019-05-21T03:05:37.497Z,99.90
2019-05-21T03:08:05.929Z,99.90
2019-05-21T03:10:34.425Z,99.90
2019-05-21T03:13:02.861Z,99.90
2019-05-21T03:15:31.353Z,99.90
2019-05-21T03:17:59.791Z,99.90
2019-05-21T03:20:28.298Z,99.90
2019-05-21T03:22:56.891Z,99.90
2019-05-21T03:25:25.366Z,99.90
2019-05-21T03:27:53.797Z,99.90
2019-05-21T03:30:22.390Z,99.90
2019-05-21T03:32:50.838Z,99.90
2019-05-21T03:35:19.430Z,99.90
2019-05-21T03:37:47.931Z,99.90
2019-05-21T03:40:16.536Z,99.90
2019-05-21T03:42:45.018Z,99.90
2019-05-21T03:45:13.649Z,99.90
2019-05-21T03:47:42.145Z,99.90
2019-05-21T03:50:10.612Z,99.90
2019-05-21T03:52:39.571Z,99.90
2019-05-21T03:55:08.107Z,99.90
2019-05-21T03:57:36.600Z,99.90
2019-05-21T04:00:06.399Z,99.90
2019-05-21T04:02:35.450Z,99.90
2019-05-21T04:05:04.611Z,99.90
2019-05-21T04:07:33.594Z,99.90
2019-05-21T04:10:02.053Z,99.90
2019-05-21T04:12:30.663Z,99.90
2019-05-21T04:15:03.542Z,99.90
2019-05-21T04:17:42.527Z,99.90
2019-05-21T04:20:11.606Z,99.90
2019-05-21T04:22:52.125Z,99.90
2019-05-21T04:25:21.584Z,99.90
2019-05-21T04:27:50.066Z,99.90
2019-05-21T04:30:18.512Z,99.90
2019-05-21T04:32:47.292Z,99.90
2019-05-21T04:35:16.144Z,99.90
2019-05-21T04:37:44.697Z,99.90
2019-05-21T04:40:13.178Z,99.90
2019-05-21T04:42:41.561Z,99.90
2019-05-21T04:45:11.241Z,99.90
2019-05-21T04:47:41.687Z,99.90
2019-05-21T04:50:10.114Z,99.90
2019-05-21T04:52:38.608Z,99.90
2019-05-21T04:55:07.248Z,99.90
2019-05-21T04:57:37.432Z,99.90
2019-05-21T05:00:06.836Z,99.90
2019-05-21T05:02:35.419Z,99.90
2019-05-21T05:05:04.053Z,99.90
2019-05-21T05:07:35.569Z,99.90
2019-05-21T05:10:14.200Z,99.90
2019-05-21T05:12:47.736Z,99.90
2019-05-21T05:15:17.169Z,99.90
2019-05-21T05:17:46.958Z,99.90
2019-05-21T05:20:31.297Z,99.90
2019-05-21T05:23:02.111Z,99.90
2019-05-21T05:25:31.069Z,99.90
2019-05-21T05:28:19.773Z,99.90
2019-05-21T05:30:48.905Z,99.90
2019-05-21T05:33:18.175Z,99.90
2019-05-21T05:35:46.582Z,99.90
2019-05-21T05:38:15.488Z,99.90
2019-05-21T05:40:46.709Z,99.90
2019-05-21T05:43:20.627Z,99.90
2019-05-21T05:45:49.195Z,99.90
2019-05-21T05:48:21.188Z,99.90
2019-05-21T05:50:52.309Z,99.90
2019-05-21T05:53:20.797Z,99.90
2019-05-21T05:55:49.136Z,99.90
2019-05-21T05:58:17.628Z,99.90
2019-05-21T06:00:46.066Z,99.90
2019-05-21T06:03:14.545Z,99.90
2019-05-21T06:05:43.028Z,99.90
2019-05-21T06:08:12.468Z,99.90
2019-05-21T06:10:41.333Z,99.90
2019-05-21T06:13:10.139Z,99.90
2019-05-21T06:15:39.310Z,99.90
2019-05-21T06:18:08.120Z,99.90
2019-05-21T06:20:37.081Z,99.90
2019-05-21T06:23:07.481Z,99.90
2019-05-21T06:25:37.006Z,99.90
2019-05-21T06:28:05.764Z,99.90
2019-05-21T06:30:34.733Z,99.90
2019-05-21T06:33:03.282Z,99.90
2019-05-21T06:35:32.210Z,99.90
2019-05-21T06:38:16.682Z,99.90
2019-05-21T06:40:30.902Z,99.90
2019-05-21T06:42:59.296Z,99.90
2019-05-21T06:45:27.709Z,99.90
2019-05-21T06:47:56.718Z,99.90
2019-05-21T06:50:25.146Z,99.90
2019-05-21T06:52:53.577Z,99.90
2019-05-21T06:55:22.069Z,99.90
2019-05-21T06:57:50.585Z,99.90
2019-05-21T07:00:19.922Z,99.90
2019-05-21T07:02:48.354Z,99.90
2019-05-21T07:05:16.963Z,99.90
2019-05-21T07:07:45.462Z,98.30
2019-05-21T07:10:14.432Z,97.50
2019-05-21T07:12:42.865Z,96.60
2019-05-21T07:15:11.399Z,95.50
2019-05-21T07:17:39.900Z,94.60
2019-05-21T07:20:08.647Z,94.20
2019-05-21T07:22:37.190Z,93.90
2019-05-21T07:25:06.279Z,92.20
2019-05-21T07:27:34.861Z,90.30
2019-05-21T07:30:03.788Z,89.70
2019-05-21T07:32:32.136Z,88.70
2019-05-21T07:35:00.642Z,87.70
2019-05-21T07:37:29.171Z,87.70
2019-05-21T07:39:57.775Z,86.50
2019-05-21T07:42:26.478Z,84.40
2019-05-21T07:44:54.974Z,84.70
2019-05-21T07:47:23.394Z,84.40
2019-05-21T07:49:51.899Z,85.10
2019-05-21T07:52:20.330Z,83.30
2019-05-21T07:54:48.893Z,82.50
2019-05-21T07:57:17.332Z,82.90
2019-05-21T07:59:45.735Z,81.20
2019-05-21T08:02:14.162Z,80.20
2019-05-21T08:04:43.118Z,79.70
2019-05-21T08:07:11.558Z,79.60
2019-05-21T08:09:40.061Z,78.50
2019-05-21T08:12:27.782Z,79.30
2019-05-21T08:14:38.787Z,79.20
2019-05-21T08:17:07.206Z,78.80
2019-05-21T08:19:35.693Z,77.40
2019-05-21T08:22:04.126Z,78.00
2019-05-21T08:24:32.637Z,77.40
2019-05-21T08:27:01.084Z,78.10
2019-05-21T08:29:29.754Z,78.40
2019-05-21T08:31:58.593Z,77.80
2019-05-21T08:34:27.025Z,76.90
2019-05-21T08:37:14.677Z,75.40
2019-05-21T08:39:43.588Z,75.30
2019-05-21T08:42:12.091Z,76.90
2019-05-21T08:44:40.521Z,77.50
2019-05-21T08:47:09.000Z,76.30
2019-05-21T08:49:37.490Z,75.70
2019-05-21T08:52:05.980Z,76.30
2019-05-21T08:54:46.677Z,79.00
2019-05-21T08:57:15.199Z,75.00
2019-05-21T08:59:43.626Z,76.50
2019-05-21T09:02:12.229Z,77.10
2019-05-21T09:04:46.263Z,77.70
2019-05-21T09:07:11.054Z,78.70
2019-05-21T09:09:49.747Z,77.40
2019-05-21T09:12:09.779Z,79.00
2019-05-21T09:14:38.197Z,77.90
2019-05-21T09:17:06.688Z,76.10
2019-05-21T09:19:36.569Z,77.70
2019-05-21T09:22:05.540Z,76.30
2019-05-21T09:24:34.047Z,78.00
2019-05-21T09:27:02.535Z,78.60
2019-05-21T09:29:30.978Z,79.90
2019-05-21T09:31:59.464Z,78.80
2019-05-21T09:34:27.991Z,78.50
2019-05-21T09:36:57.013Z,79.90
2019-05-21T09:39:25.505Z,79.30
2019-05-21T09:41:53.998Z,79.30
2019-05-21T09:44:22.489Z,80.00
2019-05-21T09:46:51.588Z,76.80
2019-05-21T09:49:20.044Z,75.40
2019-05-21T09:51:48.469Z,72.50
2019-05-21T09:54:16.965Z,70.40
2019-05-21T09:56:45.890Z,72.10
2019-05-21T09:59:39.753Z,71.30
2019-05-21T10:02:12.546Z,71.30
2019-05-21T10:04:41.093Z,73.10
2019-05-21T10:07:09.797Z,71.70
2019-05-21T10:09:38.242Z,71.70
2019-05-21T10:12:06.882Z,72.70
2019-05-21T10:14:35.380Z,73.20
2019-05-21T10:17:03.808Z,72.20
2019-05-21T10:19:32.229Z,72.40
2019-05-21T10:22:01.252Z,71.30
2019-05-21T10:24:29.702Z,71.80
2019-05-21T10:26:58.622Z,68.70
2019-05-21T10:29:27.141Z,67.30
2019-05-21T10:31:55.613Z,66.40
2019-05-21T10:34:24.114Z,65.30
2019-05-21T10:36:52.597Z,65.90
2019-05-21T10:39:21.246Z,65.40
2019-05-21T10:41:49.685Z,67.40
2019-05-21T10:44:18.157Z,68.10
2019-05-21T10:46:46.605Z,67.70
2019-05-21T10:49:15.113Z,70.30
2019-05-21T10:51:43.545Z,70.70
2019-05-21T10:54:12.040Z,71.50
2019-05-21T10:56:47.760Z,73.20
2019-05-21T10:59:10.763Z,74.90
2019-05-21T11:01:52.768Z,74.50
2019-05-21T11:04:34.861Z,74.60
2019-05-21T11:07:03.391Z,75.10
2019-05-21T11:09:31.879Z,76.60
2019-05-21T11:12:00.314Z,77.00
2019-05-21T11:14:28.811Z,79.50
2019-05-21T11:16:57.345Z,78.60
2019-05-21T11:19:25.875Z,79.10
2019-05-21T11:21:54.889Z,76.70
2019-05-21T11:24:23.739Z,78.60
2019-05-21T11:26:52.236Z,78.40
2019-05-21T11:29:20.675Z,77.30
2019-05-21T11:31:57.248Z,77.20
2019-05-21T11:34:19.457Z,76.80
2019-05-21T11:36:47.929Z,72.20
2019-05-21T11:39:16.508Z,70.40
2019-05-21T11:41:45.624Z,71.60
2019-05-21T11:44:14.309Z,69.10
2019-05-21T11:46:42.797Z,70.60
2019-05-21T11:49:11.229Z,71.10
2019-05-21T11:51:40.075Z,71.50
2019-05-21T11:54:08.500Z,71.20
2019-05-21T11:56:37.002Z,72.40
2019-05-21T11:59:05.434Z,71.60
2019-05-21T12:01:34.017Z,73.00
2019-05-21T12:04:02.890Z,75.00
2019-05-21T12:06:31.486Z,74.70
2019-05-21T12:08:59.917Z,76.30
2019-05-21T12:11:28.425Z,75.90
2019-05-21T12:13:56.856Z,74.40
2019-05-21T12:16:25.339Z,72.80
2019-05-21T12:18:53.765Z,74.30
2019-05-21T12:21:22.248Z,72.80
2019-05-21T12:23:50.678Z,71.60
2019-05-21T12:26:19.173Z,71.40
2019-05-21T12:28:47.605Z,72.40
2019-05-21T12:31:16.158Z,71.40
2019-05-21T12:33:44.600Z,72.40
2019-05-21T12:36:13.851Z,73.50
2019-05-21T12:38:42.449Z,72.80
2019-05-21T12:41:13.563Z,73.10
2019-05-21T12:43:41.729Z,75.30
2019-05-21T12:46:10.156Z,76.30
2019-05-21T12:48:38.716Z,76.20
2019-05-21T12:51:07.157Z,77.60
2019-05-21T12:53:36.097Z,77.30
2019-05-21T12:56:04.529Z,78.30
2019-05-21T12:58:33.028Z,77.90
2019-05-21T13:01:01.513Z,77.80
2019-05-21T13:03:30.086Z,79.70
2019-05-21T13:05:58.511Z,79.70
2019-05-21T13:08:27.004Z,79.90
2019-05-21T13:10:55.802Z,79.70
2019-05-21T13:13:24.293Z,81.60
2019-05-21T13:15:52.730Z,81.60
2019-05-21T13:18:21.219Z,82.40
2019-05-21T13:20:49.659Z,79.80
2019-05-21T13:23:18.527Z,77.90
2019-05-21T13:25:47.037Z,79.90
2019-05-21T13:28:15.567Z,77.70
2019-05-21T13:30:44.088Z,74.30
2019-05-21T13:33:12.589Z,73.10
2019-05-21T13:35:41.068Z,73.50
2019-05-21T13:38:13.323Z,72.20
2019-05-21T13:40:40.065Z,70.30
2019-05-21T13:43:08.946Z,69.80
2019-05-21T13:45:37.367Z,68.70
2019-05-21T13:48:06.070Z,70.00
2019-05-21T13:50:34.506Z,70.20
2019-05-21T13:53:03.001Z,70.30
2019-05-21T13:55:33.968Z,70.10
2019-05-21T13:58:01.755Z,69.30
2019-05-21T14:00:34.009Z,68.10
2019-05-21T14:03:02.808Z,66.10
2019-05-21T14:05:31.228Z,62.90
2019-05-21T14:08:00.224Z,64.20
2019-05-21T14:10:29.156Z,64.90
2019-05-21T14:12:57.648Z,65.40
2019-05-21T14:15:25.982Z,66.20
2019-05-21T14:17:54.418Z,66.20
2019-05-21T14:20:23.085Z,67.40
2019-05-21T14:22:51.521Z,66.80
2019-05-21T14:25:20.009Z,66.80
2019-05-21T14:27:48.439Z,68.20
2019-05-21T14:30:17.137Z,68.30
2019-05-21T14:32:45.702Z,66.40
2019-05-21T14:35:14.193Z,67.40
2019-05-21T14:37:42.625Z,66.40
2019-05-21T14:40:11.900Z,66.80
2019-05-21T14:42:40.405Z,68.40
2019-05-21T14:45:09.819Z,67.50
2019-05-21T14:55:04.889Z,68.70
2019-05-21T14:57:33.757Z,67.20
2019-05-21T15:00:04.041Z,65.30
2019-05-21T15:02:32.468Z,65.70
2019-05-21T15:05:00.968Z,66.70
2019-05-21T15:07:29.401Z,65.00
2019-05-21T15:09:57.905Z,65.80
2019-05-21T15:12:26.352Z,65.10
2019-05-21T15:14:54.898Z,65.30
2019-05-21T15:17:23.321Z,65.10
2019-05-21T15:19:54.266Z,64.20
2019-05-21T15:22:22.706Z,64.60
2019-05-21T15:24:51.186Z,64.50
2019-05-21T15:27:20.061Z,64.40
2019-05-21T15:29:48.592Z,64.50
2019-05-21T15:32:17.082Z,64.70
2019-05-21T15:34:45.566Z,63.90
2019-05-21T15:37:14.007Z,63.70
2019-05-21T15:39:42.573Z,64.20
2019-05-21T15:42:11.069Z,64.50
2019-05-21T15:44:39.498Z,64.60
2019-05-21T15:47:07.981Z,64.00
2019-05-21T15:49:37.191Z,64.50
2019-05-21T15:52:06.125Z,66.10
2019-05-21T15:54:34.558Z,63.60
2019-05-21T15:57:03.052Z,63.80
2019-05-21T15:59:31.992Z,62.70
2019-05-21T16:02:00.472Z,62.80
2019-05-21T16:04:28.914Z,63.10
2019-05-21T16:06:57.405Z,62.30
2019-05-21T16:09:26.005Z,62.60
2019-05-21T16:11:54.498Z,63.20
2019-05-21T16:14:22.918Z,63.30
2019-05-21T16:16:51.412Z,63.10
2019-05-21T16:19:19.842Z,63.20
2019-05-21T16:21:48.318Z,63.70
2019-05-21T16:24:16.742Z,64.00
2019-05-21T16:26:45.228Z,64.90
2019-05-21T16:29:13.658Z,64.70
2019-05-21T16:31:42.154Z,64.10
2019-05-21T16:34:10.585Z,63.80
2019-05-21T16:36:39.077Z,64.80
2019-05-21T16:39:08.202Z,65.80
2019-05-21T16:41:44.601Z,65.90
2019-05-21T16:44:07.016Z,66.50
2019-05-21T16:46:35.887Z,67.40
2019-05-21T16:49:04.409Z,68.00
2019-05-21T16:51:32.904Z,68.60
2019-05-21T16:54:01.324Z,68.70
2019-05-21T16:56:30.365Z,68.90
2019-05-21T16:58:58.869Z,69.00
2019-05-21T17:01:28.253Z,68.90
2019-05-21T17:03:59.828Z,68.60
2019-05-21T17:06:27.116Z,69.40
2019-05-21T17:08:55.549Z,68.70
2019-05-21T17:11:24.142Z,68.80
2019-05-21T17:13:52.584Z,68.90
2019-05-21T17:16:21.374Z,68.10
2019-05-21T17:18:49.852Z,68.00
2019-05-21T17:21:18.292Z,67.40
2019-05-21T17:23:46.781Z,67.10
2019-05-21T17:26:15.196Z,67.30
2019-05-21T17:28:44.545Z,68.10
2019-05-21T17:31:13.386Z,68.20
2019-05-21T17:33:42.149Z,68.70
2019-05-21T17:36:10.969Z,68.80
2019-05-21T17:38:39.465Z,69.30
2019-05-21T17:41:07.956Z,69.80
2019-05-21T17:43:36.505Z,69.80
2019-05-21T17:46:05.045Z,70.00
2019-05-21T17:48:33.974Z,70.40
2019-05-21T17:51:02.410Z,71.20
2019-05-21T17:53:30.800Z,71.90
2019-05-21T17:55:59.424Z,72.00
2019-05-21T17:58:28.369Z,72.20
2019-05-21T18:01:00.433Z,72.20
2019-05-21T18:03:29.392Z,72.80
2019-05-21T18:05:57.837Z,73.10
2019-05-21T18:08:26.842Z,73.20
2019-05-21T18:10:55.986Z,74.60
2019-05-21T18:13:25.288Z,75.80
2019-05-21T18:15:54.021Z,76.60
2019-05-21T18:18:23.209Z,77.60
2019-05-21T18:20:51.626Z,78.80
2019-05-21T18:23:20.376Z,78.60
2019-05-21T18:25:48.807Z,80.60
2019-05-21T18:28:17.294Z,81.30
2019-05-21T18:30:46.232Z,81.40
2019-05-21T18:33:15.522Z,82.20
2019-05-21T18:35:45.400Z,82.20
2019-05-21T18:38:14.120Z,82.70
2019-05-21T18:40:42.629Z,85.10
2019-05-21T18:43:11.635Z,83.20
2019-05-21T18:45:40.109Z,83.10
2019-05-21T18:48:09.034Z,83.40
2019-05-21T18:50:37.899Z,83.20
2019-05-21T18:53:08.693Z,83.30
2019-05-21T18:55:43.625Z,84.20
2019-05-21T18:58:17.856Z,85.10
2019-05-21T19:00:57.901Z,85.40
2019-05-21T19:03:39.087Z,85.80
2019-05-21T19:06:10.268Z,86.70
2019-05-21T19:08:46.725Z,88.30
2019-05-21T19:11:17.286Z,88.60
2019-05-21T19:13:53.253Z,89.10
2019-05-21T19:16:25.448Z,89.90
2019-05-21T19:19:03.536Z,90.30
2019-05-21T19:21:38.905Z,90.40
2019-05-21T19:24:10.737Z,90.70
2019-05-21T19:27:05.800Z,90.80
2019-05-21T19:29:34.780Z,90.80
2019-05-21T19:32:06.446Z,91.00
2019-05-21T19:34:39.722Z,91.10
2019-05-21T19:37:10.280Z,91.50
2019-05-21T19:39:39.285Z,91.80
2019-05-21T19:42:15.282Z,91.80
2019-05-21T19:44:46.068Z,91.90
2019-05-21T19:47:17.112Z,92.30
2019-05-21T19:49:47.465Z,93.20
2019-05-21T19:52:21.050Z,93.10
2019-05-21T19:54:51.037Z,93.90
2019-05-21T19:57:26.943Z,93.80
2019-05-21T20:00:01.005Z,94.10
2019-05-21T20:02:30.541Z,94.60
2019-05-21T20:05:08.791Z,94.70
2019-05-21T20:07:50.143Z,95.10
2019-05-21T20:10:28.723Z,95.30
2019-05-21T20:13:07.394Z,95.40
2019-05-21T20:15:40.857Z,95.60
2019-05-21T20:18:13.073Z,96.10
2019-05-21T20:20:46.565Z,96.40
2019-05-21T20:23:17.382Z,96.40
2019-05-21T20:25:55.979Z,97.00
2019-05-21T20:28:23.853Z,97.00
2019-05-21T20:31:00.384Z,97.40
2019-05-21T20:33:35.893Z,97.70
2019-05-21T20:36:08.897Z,98.00
2019-05-21T20:38:38.332Z,98.50
2019-05-21T20:41:19.911Z,98.30
2019-05-21T20:43:58.968Z,98.60
2019-05-21T20:46:27.430Z,99.20
2019-05-21T20:49:00.523Z,99.40
2019-05-21T20:51:33.785Z,99.90
2019-05-21T20:54:18.889Z,99.90
2019-05-21T20:56:52.923Z,99.90
2019-05-21T20:59:21.972Z,99.90
2019-05-21T21:01:52.447Z,99.90
2019-05-21T21:04:21.069Z,99.90
2019-05-21T21:06:49.965Z,99.90
2019-05-21T21:09:18.969Z,99.90
2019-05-21T21:11:47.614Z,99.90
2019-05-21T21:14:18.343Z,99.90
2019-05-21T21:16:47.238Z,99.90
2019-05-21T21:19:15.786Z,99.90
2019-05-21T21:21:44.480Z,99.90
2019-05-21T21:24:13.117Z,99.90
2019-05-21T21:26:42.273Z,99.90
2019-05-21T21:29:11.893Z,99.90
2019-05-21T21:31:40.825Z,99.90
2019-05-21T21:34:09.471Z,99.90
2019-05-21T21:36:39.281Z,99.90
2019-05-21T21:39:09.974Z,99.90
2019-05-21T21:41:38.581Z,99.90
2019-05-21T21:44:07.092Z,99.90
2019-05-21T21:46:36.327Z,99.90
2019-05-21T21:49:05.880Z,99.90
2019-05-21T21:51:34.817Z,99.90
2019-05-21T21:54:04.067Z,99.90
2019-05-21T21:56:32.480Z,99.90
2019-05-21T21:59:00.968Z,99.90
2019-05-21T22:01:49.696Z,99.90
2019-05-21T22:04:23.711Z,99.90
2019-05-21T22:06:52.429Z,99.90
2019-05-21T22:09:27.508Z,99.90
2019-05-21T22:11:56.348Z,99.90
2019-05-21T22:14:25.064Z,99.90
2019-05-21T22:16:54.470Z,99.90
2019-05-21T22:19:23.206Z,99.90
2019-05-21T22:21:52.888Z,99.90
2019-05-21T22:24:21.888Z,99.90
2019-05-21T22:26:50.917Z,99.90
2019-05-21T22:29:19.723Z,99.90
2019-05-21T22:31:48.772Z,99.90
2019-05-21T22:34:18.099Z,99.90
2019-05-21T22:36:46.572Z,99.90
2019-05-21T22:39:33.843Z,99.90
2019-05-21T22:42:02.544Z,99.90
2019-05-21T22:44:31.394Z,99.90
2019-05-21T22:47:00.390Z,99.90
2019-05-21T22:49:33.716Z,99.90
2019-05-21T22:52:00.323Z,99.90
2019-05-21T22:54:29.011Z,99.90
2019-05-21T22:56:57.841Z,99.90
2019-05-21T22:59:26.433Z,99.90
2019-05-21T23:01:57.164Z,99.90
2019-05-21T23:04:25.877Z,99.90
2019-05-21T23:06:54.300Z,99.90
2019-05-21T23:09:23.094Z,99.90
2019-05-21T23:14:28.710Z,99.90
2019-05-21T23:16:57.459Z,99.90
2019-05-21T23:19:29.055Z,99.90
2019-05-21T23:21:58.744Z,99.90
2019-05-21T23:24:28.334Z,99.90
2019-05-21T23:26:57.471Z,99.90
2019-05-21T23:29:26.412Z,99.90
2019-05-21T23:31:55.241Z,99.90
2019-05-21T23:34:24.328Z,99.90
2019-05-21T23:36:54.976Z,99.90
2019-05-21T23:39:26.171Z,99.90
2019-05-21T23:41:55.485Z,99.90
2019-05-21T23:44:24.293Z,99.90
2019-05-21T23:46:52.933Z,99.90
2019-05-21T23:49:21.964Z,99.90
2019-05-21T23:51:50.583Z,99.90
2019-05-21T23:54:19.475Z,99.90
2019-05-21T23:56:48.069Z,99.90
2019-05-21T23:59:16.909Z,99.90
